Terminal Aerodrome Forecast
Issued by NWS Jacksonville, FL

Home | Current Version | Previous Version | Text Only | Print | Product List | Glossary On
Versions: 1 2 3 4 5 6 7 8 9 10 11 12 13 14 15 16 17 18 19 20 21 22 23 24 25
000
FTUS42 KJAX 291721
TAFGNV
TAF
KGNV 291721Z 2918/3018 10006KT P6SM SCT025 BKN050
     FM292000 09008KT P6SM VCTS SCT020CB BKN035
      TEMPO 2920/2923 3SM TSRA BR BKN020CB
     FM300000 08004KT P6SM VCSH SCT025 BKN050
     FM300400 VRB03KT P6SM SCT050 BKN150
     FM301600 07007KT P6SM VCTS BKN040CB=

USA.gov is the U.S. government's official web portal to all federal, state and local government web resources and services.